Language selection

My Weather Profile Weather Topics  | 

East Foxe: Past 24 Hour Conditions

 

Arviat Airport

01:00 AM CST 30 January 2023
Disclaimer

This table is a summary of hourly weather conditions for the past 24 hours.
Please note that these observations might not always be representative of weather conditions over their associated marine area.

Date / Time
(CST)
Wind(knots) Conditions Visibility(km) Pressure(kPa) Air tempC) Relative humidity(%) Dew pointC) Wind Chill
30 January 2023
1:00 WNW 11 Light Snow 5 100.8 -30 69 -34 -44
0:00 WSW 7 Cloudy 16 100.9 -32 68 -36 -44
29 January 2023
23:00 W 6 Mostly Cloudy 16 101.0 -33 67 -37 -43
22:00 W 8 Mostly Cloudy 16 101.1 -32 68 -36 -44
21:00 W 7 Cloudy 11 101.1 -34 67 -38 -46
20:00 W 8 Clear 16 101.2 -35 66 -39 -47
19:00 W 9 Clear 16 101.3 -35 66 -39 -48
18:00 W 8 Clear 16 101.4 -35 67 -39 -47
17:00 W 9 Clear 16 101.4 -34 66 -39 -48
16:00 WSW 7 Sunny 16 101.5 -34 64 -39 -46
15:00 W 6 Mostly Cloudy 24 101.5 -34 65 -38 -45
14:00 W 6 Sunny 24 101.6 -34 64 -39 -45
13:00 NW 10 Ice Crystals 24 101.5 -35 64 -39 -48
12:00 WNW 10 Ice Crystals 24 101.6 -35 64 -40 -49
11:00 WNW 11 Ice Crystals 24 101.7 -35 65 -40 -50
10:00 WNW 6 Ice Crystals 24 101.6 -36 65 -40 -47
9:00 NNW 9 Ice Crystals 24 101.6 -36 65 -40 -49
8:00 NNW 13 Clear 16 101.6 -35 66 -39 -51
7:00 NNW 13 Clear 16 101.6 -35 66 -39 -50
6:00 NNW 13 Clear 16 101.6 -35 66 -39 -50
5:00 NNW 15 Clear 16 101.6 -34 67 -38 -51
4:00 NW 11 gust 16 Clear 16 101.6 -34 67 -38 -49
3:00 NNW 12 Clear 16 101.6 -34 67 -38 -48
2:00 NNW 17 Haze 6 101.5 -33 68 -37 -50
1:00 NW 16 Haze 6 101.5 -33 69 -36 -49

Zoom-in to make a selection

Map of Hudson - Hudson Bay marine weather areas Arviat Airport Baker Lake Airport Chesterfield Inlet Airport Coral Harbour Airport Rankin Inlet Airport Sanikiluaq Airport Whale Cove Airport Kinngait (Cape Dorset Airport) Iqaluit Airport Wager Bay Kimmirut Airport Churchill Airport Fort Severn Airport Peawanuck Airport Moosonee Airport Eastmain Airport La Grande Rivière Airport Waskaganish Airport Wemindji Airport Akulivik Airport Inukjuak Airport Ivujivik Airport Kuujjuarapik Airport Puvirnituq Airport Umiujaq Airport Aupaluk Airport Kangiqsujuaq Airport Kangirsuk Airport Kangiqsualujjuaq Airport Kuujjuaq Airport Quaqtaq Airport Salluit Airport Tasiujaq Airport Cape Kakkiviak
Legend:
buoy Buoy
land station Land Station

Hudson - Hudson Bay Area

Another Region

What we are doing

Date modified: